Time;durP1;ratioP1;P1;durP2;ratioP2;P2;SDS_P1;SDS_P2;PMS_P1;PMS_P2;Temp;Humidity;BMP_temperature;BMP_pressure;BME280_temperature;BME280_humidity;BME280_pressure;Samples;Min_cycle;Max_cycle;Signal;HPM_P1;HPM_P2
2022/01/26 00:05:43;;;;;;;94.70;28.10;;;3.00;99.90;;;;;;5056936;28;20049;-85
2022/01/26 00:06:34;;;;;;;87.28;28.02;;;2.90;99.90;;;;;;5041718;28;20107;-85
2022/01/26 00:09:00;;;;;;;90.85;28.52;;;3.00;99.90;;;;;;5047894;28;20061;-85
2022/01/26 00:11:27;;;;;;;104.97;30.05;;;3.00;99.90;;;;;;5077614;28;20060;-85
2022/01/26 00:13:54;;;;;;;83.25;25.98;;;3.00;99.90;;;;;;5035935;28;20105;-85
2022/01/26 00:16:27;;;;;;;95.45;29.02;;;3.00;99.90;;;;;;5028686;28;20105;-84
2022/01/26 00:18:57;;;;;;;89.85;26.77;;;3.00;99.90;;;;;;5040997;28;20367;-85
2022/01/26 00:21:30;;;;;;;95.88;29.42;;;2.90;99.90;;;;;;5053534;28;20052;-85
2022/01/26 00:26:48;;;;;;;87.97;26.45;;;2.90;99.90;;;;;;5031972;28;20077;-84
2022/01/26 00:29:11;;;;;;;;;;;2.90;99.90;;;;;;5044984;28;20410;-84
2022/01/26 00:40:04;;;;;;;93.38;26.25;;;2.70;99.90;;;;;;5053909;28;20490;-85
2022/01/26 00:42:36;;;;;;;93.03;27.00;;;2.80;99.90;;;;;;5044148;28;20084;-85
2022/01/26 00:45:03;;;;;;;96.05;28.25;;;2.80;99.90;;;;;;5042442;28;20475;-84
2022/01/26 00:47:28;;;;;;;99.50;28.75;;;2.80;99.90;;;;;;5057599;28;20127;-85
2022/01/26 00:49:59;;;;;;;93.22;27.58;;;2.80;99.90;;;;;;5052646;28;20542;-84
2022/01/26 00:52:37;;;;;;;82.72;25.05;;;2.70;99.90;;;;;;5044371;28;20044;-86
2022/01/26 00:55:04;;;;;;;98.70;28.42;;;2.80;99.90;;;;;;5066158;28;20086;-86
2022/01/26 00:57:30;;;;;;;102.65;30.45;;;2.80;99.90;;;;;;5032554;28;20455;-85
2022/01/26 00:59:58;;;;;;;102.72;30.48;;;2.80;99.90;;;;;;5016567;28;20133;-85
2022/01/26 01:02:23;;;;;;;95.15;27.75;;;2.80;99.90;;;;;;5059270;28;20422;-85
2022/01/26 01:04:49;;;;;;;93.57;28.50;;;2.80;99.90;;;;;;5035132;28;20045;-85
2022/01/26 01:07:19;;;;;;;95.55;29.98;;;2.80;99.90;;;;;;5049496;28;20049;-85
2022/01/26 01:09:46;;;;;;;92.75;27.98;;;2.80;99.90;;;;;;5047249;28;20437;-84
2022/01/26 01:12:11;;;;;;;105.93;30.88;;;2.80;99.90;;;;;;5034659;28;20080;-85
2022/01/26 01:14:39;;;;;;;97.97;29.13;;;2.80;99.90;;;;;;5021367;28;20114;-86
2022/01/26 01:17:09;;;;;;;91.28;29.05;;;2.70;99.90;;;;;;5053446;28;20045;-84
2022/01/26 01:20:00;;;;;;;94.97;28.92;;;2.70;99.90;;;;;;5051467;28;20051;-85
2022/01/26 01:30:38;;;;;;;98.75;28.48;;;2.70;99.90;;;;;;5054560;28;20053;-85
2022/01/26 01:33:10;;;;;;;89.57;28.65;;;2.70;99.90;;;;;;5065882;28;20581;-84
2022/01/26 01:35:42;;;;;;;93.25;27.30;;;2.70;99.90;;;;;;5028601;28;20103;-84
2022/01/26 01:38:10;;;;;;;94.82;28.88;;;2.70;99.90;;;;;;5057707;28;20065;-84
2022/01/26 01:40:41;;;;;;;99.03;28.40;;;2.70;99.90;;;;;;5061370;28;20044;-85
2022/01/26 01:43:08;;;;;;;88.82;27.73;;;2.70;99.90;;;;;;5040026;28;20115;-85
2022/01/26 01:45:43;;;;;;;106.00;29.77;;;2.70;99.90;;;;;;5051723;28;20079;-85
2022/01/26 01:48:11;;;;;;;98.13;30.50;;;2.70;99.90;;;;;;5056575;28;20140;-85
2022/01/26 01:50:41;;;;;;;96.20;29.85;;;2.70;99.90;;;;;;5056396;28;20049;-85
2022/01/26 01:53:10;;;;;;;103.35;31.17;;;2.70;99.90;;;;;;5029348;28;20093;-85
2022/01/26 01:55:42;;;;;;;100.72;28.80;;;2.70;99.90;;;;;;5054227;28;20063;-85
2022/01/26 01:58:09;;;;;;;95.85;30.73;;;2.70;99.90;;;;;;5038128;28;20048;-84
2022/01/26 02:00:37;;;;;;;98.32;29.52;;;2.60;99.90;;;;;;5075065;28;20086;-84
2022/01/26 02:03:03;;;;;;;101.15;30.48;;;2.60;99.90;;;;;;5056441;28;20564;-84
2022/01/26 02:05:29;;;;;;;90.90;29.08;;;2.60;99.90;;;;;;5055137;28;20052;-84
2022/01/26 02:07:55;;;;;;;97.60;29.08;;;2.60;99.90;;;;;;5053896;28;20048;-84
2022/01/26 02:10:23;;;;;;;93.00;29.13;;;2.60;99.90;;;;;;5067689;28;20502;-84
2022/01/26 02:12:59;;;;;;;98.25;29.33;;;2.60;99.90;;;;;;5066963;28;20059;-84
2022/01/26 02:16:08;;;;;;;94.45;28.13;;;2.60;99.90;;;;;;5051143;28;20048;-84
2022/01/26 02:21:08;;;;;;;98.13;29.75;;;2.60;99.90;;;;;;5036937;28;20498;-84
2022/01/26 02:56:25;;;;;;;82.20;23.95;;;2.50;99.90;;;;;;5043302;28;20098;-84
2022/01/26 03:01:56;;;;;;;89.22;26.77;;;2.50;99.90;;;;;;5017631;28;20469;-84
2022/01/26 03:09:18;;;;;;;88.70;27.45;;;2.50;99.90;;;;;;5067248;28;20051;-84
2022/01/26 03:11:46;;;;;;;92.55;28.48;;;2.40;99.90;;;;;;5065431;28;20808;-84
2022/01/26 03:14:25;;;;;;;94.35;28.73;;;2.40;99.90;;;;;;5034979;28;20040;-84
2022/01/26 03:16:58;;;;;;;81.78;23.98;;;2.40;99.90;;;;;;5046626;28;20045;-84
2022/01/26 03:35:13;;;;;;;94.30;26.65;;;2.40;99.90;;;;;;5062426;28;20539;-84
2022/01/26 03:37:39;;;;;;;90.25;26.17;;;2.50;99.90;;;;;;5038712;28;20055;-86
2022/01/26 03:40:13;;;;;;;104.30;27.75;;;2.50;99.90;;;;;;5079877;28;20048;-84
2022/01/26 03:42:39;;;;;;;101.35;28.23;;;2.50;99.90;;;;;;5052036;28;20093;-85
2022/01/26 03:45:05;;;;;;;94.88;29.00;;;2.50;99.90;;;;;;5049887;28;20048;-84
2022/01/26 03:47:30;;;;;;;95.00;28.25;;;2.40;99.90;;;;;;5028621;28;20133;-84
2022/01/26 03:49:56;;;;;;;99.82;28.00;;;2.40;99.90;;;;;;5052122;28;20045;-84
2022/01/26 03:52:22;;;;;;;112.13;29.55;;;2.40;99.90;;;;;;5057029;28;20398;-84
2022/01/26 03:54:47;;;;;;;99.22;29.05;;;2.40;99.90;;;;;;5018992;28;20057;-84
2022/01/26 03:57:13;;;;;;;98.50;29.13;;;2.50;99.90;;;;;;5048316;28;20073;-84
2022/01/26 03:59:39;;;;;;;95.45;27.75;;;2.50;99.90;;;;;;5003930;28;20055;-84
2022/01/26 04:02:05;;;;;;;94.20;27.40;;;2.50;99.90;;;;;;5044362;28;20099;-84
2022/01/26 04:04:36;;;;;;;99.50;27.98;;;2.50;99.90;;;;;;5054047;28;20036;-84
2022/01/26 04:07:02;;;;;;;102.53;30.10;;;2.50;99.90;;;;;;5059433;28;20131;-84
2022/01/26 04:09:28;;;;;;;97.03;28.85;;;2.50;99.90;;;;;;5050734;28;20049;-84
2022/01/26 04:11:54;;;;;;;90.18;27.05;;;2.50;99.90;;;;;;5022610;28;20063;-84
2022/01/26 04:14:24;;;;;;;92.20;26.88;;;2.50;99.90;;;;;;5051747;28;20105;-85
2022/01/26 04:16:50;;;;;;;89.60;26.73;;;2.50;99.90;;;;;;5055924;28;20044;-84
2022/01/26 04:19:17;;;;;;;94.95;29.00;;;2.50;99.90;;;;;;5043317;28;20394;-84
2022/01/26 04:22:20;;;;;;;89.35;27.25;;;2.50;99.90;;;;;;5027413;28;20099;-83
2022/01/26 04:24:40;;;;;;;96.88;28.33;;;2.60;99.90;;;;;;5030704;28;20055;-84
2022/01/26 04:29:35;;;;;;;102.82;30.77;;;2.60;99.90;;;;;;5065048;28;20049;-83
2022/01/26 04:32:04;;;;;;;93.55;27.65;;;2.60;99.90;;;;;;5064730;28;20054;-83
2022/01/26 04:34:30;;;;;;;88.40;27.25;;;2.50;99.90;;;;;;5066049;28;20403;-84
2022/01/26 04:39:27;;;;;;;98.97;29.25;;;2.50;99.90;;;;;;5068569;28;20052;-84
2022/01/26 04:42:11;;;;;;;96.57;28.45;;;2.60;99.90;;;;;;5025444;28;20643;-84
2022/01/26 04:44:46;;;;;;;94.82;26.67;;;2.50;99.90;;;;;;5031934;28;20053;-84
2022/01/26 04:47:12;;;;;;;93.80;27.02;;;2.60;99.90;;;;;;5065345;28;20447;-83
2022/01/26 04:49:38;;;;;;;93.55;26.73;;;2.50;99.90;;;;;;5015358;28;20132;-83
2022/01/26 04:52:04;;;;;;;90.22;29.23;;;2.50;99.90;;;;;;5001669;28;20084;-84
2022/01/26 04:54:30;;;;;;;94.30;26.15;;;2.50;99.90;;;;;;5057265;28;20048;-84
2022/01/26 04:56:56;;;;;;;101.63;28.65;;;2.50;99.90;;;;;;5075426;28;20041;-84
2022/01/26 04:59:21;;;;;;;92.53;27.00;;;2.50;99.90;;;;;;5042637;28;20070;-84
2022/01/26 05:01:47;;;;;;;88.43;26.70;;;2.60;99.90;;;;;;5062703;28;20056;-84
2022/01/26 05:04:13;;;;;;;97.32;28.67;;;2.50;99.90;;;;;;5016622;28;20091;-84
2022/01/26 05:06:39;;;;;;;82.57;26.55;;;2.50;99.90;;;;;;5054385;28;20199;-84
2022/01/26 05:09:04;;;;;;;85.25;27.63;;;2.50;99.90;;;;;;5021725;28;20055;-84
2022/01/26 05:11:40;;;;;;;89.28;25.55;;;2.60;99.90;;;;;;5024374;28;20048;-84
2022/01/26 05:14:05;;;;;;;87.38;26.08;;;2.50;99.90;;;;;;5040862;28;20388;-84
2022/01/26 05:16:31;;;;;;;89.97;27.58;;;2.50;99.90;;;;;;5057873;28;20052;-84
2022/01/26 05:18:58;;;;;;;80.80;27.75;;;2.50;99.90;;;;;;5076052;28;20063;-84
2022/01/26 05:21:25;;;;;;;82.40;25.70;;;2.50;99.90;;;;;;5045891;28;20044;-84
2022/01/26 05:23:51;;;;;;;87.65;27.38;;;2.50;99.90;;;;;;5016230;28;20049;-84
2022/01/26 05:26:18;;;;;;;83.03;26.88;;;2.50;99.90;;;;;;5060448;28;20059;-83
2022/01/26 05:28:44;;;;;;;86.43;25.65;;;2.50;99.90;;;;;;5050600;28;20038;-84
2022/01/26 05:31:10;;;;;;;83.28;25.95;;;2.50;99.90;;;;;;5026388;28;20076;-84
2022/01/26 05:33:36;;;;;;;85.47;25.70;;;2.40;99.90;;;;;;5062343;28;20053;-84
2022/01/26 05:36:02;;;;;;;87.18;25.30;;;2.50;99.90;;;;;;5027668;28;20052;-83
2022/01/26 05:38:27;;;;;;;79.07;24.08;;;2.50;99.90;;;;;;5059933;28;20508;-83
2022/01/26 05:40:55;;;;;;;85.43;24.88;;;2.50;99.90;;;;;;5017039;28;20049;-83
2022/01/26 05:43:24;;;;;;;80.55;25.27;;;2.50;99.90;;;;;;5050995;28;20102;-83
2022/01/26 05:45:53;;;;;;;79.25;24.85;;;2.50;99.90;;;;;;5017447;28;20044;-83
2022/01/26 05:48:19;;;;;;;78.82;24.67;;;2.40;99.90;;;;;;5055148;28;20052;-84
2022/01/26 05:50:53;;;;;;;85.75;25.75;;;2.50;99.90;;;;;;5067557;28;20045;-85
2022/01/26 05:53:21;;;;;;;76.22;23.63;;;2.50;99.90;;;;;;5045927;28;20057;-83
2022/01/26 05:55:56;;;;;;;78.20;23.92;;;2.50;99.90;;;;;;5053891;28;20102;-84
2022/01/26 05:58:21;;;;;;;79.80;25.50;;;2.50;99.90;;;;;;5030232;28;20037;-84
2022/01/26 06:00:48;;;;;;;83.18;25.65;;;2.50;99.90;;;;;;5058535;28;20052;-84
2022/01/26 06:03:14;;;;;;;88.68;25.88;;;2.50;99.90;;;;;;5058635;28;20131;-83
2022/01/26 06:05:40;;;;;;;77.13;24.40;;;2.50;99.90;;;;;;5066072;28;20131;-84
2022/01/26 06:08:06;;;;;;;79.47;23.67;;;2.50;99.90;;;;;;5076281;28;20842;-84
2022/01/26 06:10:32;;;;;;;77.05;23.42;;;2.50;99.90;;;;;;5048947;28;20545;-84
2022/01/26 06:12:57;;;;;;;77.75;25.80;;;2.50;99.90;;;;;;5043595;28;20434;-83
2022/01/26 06:15:23;;;;;;;81.97;24.85;;;2.50;99.90;;;;;;5019985;28;20132;-84
2022/01/26 06:17:49;;;;;;;78.15;24.13;;;2.50;99.90;;;;;;5032931;28;20558;-84
2022/01/26 06:20:14;;;;;;;70.40;22.55;;;2.50;99.90;;;;;;5047503;28;20052;-84
2022/01/26 06:22:40;;;;;;;78.13;22.23;;;2.40;99.90;;;;;;5047866;28;20049;-85
2022/01/26 06:25:07;;;;;;;80.28;24.35;;;2.50;99.90;;;;;;5020478;28;20665;-85
2022/01/26 06:27:38;;;;;;;77.75;22.77;;;2.40;99.90;;;;;;5044266;28;20049;-84
2022/01/26 06:30:05;;;;;;;77.10;25.10;;;2.40;99.90;;;;;;5051746;28;20040;-84
2022/01/26 06:32:31;;;;;;;87.40;27.85;;;2.50;99.90;;;;;;5033239;28;20049;-85
2022/01/26 06:34:57;;;;;;;84.95;25.08;;;2.40;99.90;;;;;;5051107;28;20048;-84
2022/01/26 06:37:24;;;;;;;71.78;22.25;;;2.40;99.90;;;;;;5030667;28;20045;-86
2022/01/26 06:39:50;;;;;;;76.82;23.38;;;2.40;99.90;;;;;;5052524;28;20044;-85
2022/01/26 06:42:20;;;;;;;75.88;22.17;;;2.40;99.90;;;;;;5051314;28;20132;-85
2022/01/26 06:49:52;;;;;;;73.93;22.80;;;2.50;99.90;;;;;;5045330;28;20045;-85
2022/01/26 06:52:19;;;;;;;74.47;23.27;;;2.40;99.90;;;;;;5016917;28;20051;-83
2022/01/26 06:54:44;;;;;;;71.68;21.67;;;2.40;99.90;;;;;;5043659;28;20494;-83
2022/01/26 06:57:10;;;;;;;66.70;20.15;;;2.50;99.90;;;;;;5044220;28;20040;-84
2022/01/26 06:59:36;;;;;;;67.13;20.35;;;2.50;99.90;;;;;;5046785;28;20056;-84
2022/01/26 07:02:02;;;;;;;76.15;23.17;;;2.50;99.90;;;;;;5059352;28;20554;-87
2022/01/26 07:04:28;;;;;;;66.18;21.80;;;2.50;99.90;;;;;;5048792;28;20044;-85
2022/01/26 07:06:54;;;;;;;69.65;21.05;;;2.50;99.90;;;;;;5050286;28;20063;-85
2022/01/26 07:09:20;;;;;;;69.82;21.63;;;2.50;99.90;;;;;;5034671;28;20080;-84
2022/01/26 07:11:46;;;;;;;65.28;23.77;;;2.50;99.90;;;;;;5017961;28;20057;-85
2022/01/26 07:14:22;;;;;;;66.45;21.90;;;2.50;99.90;;;;;;5051026;28;20106;-85
2022/01/26 07:22:16;;;;;;;58.92;19.67;;;2.60;99.90;;;;;;5050705;28;20132;-84
2022/01/26 07:24:42;;;;;;;64.70;21.77;;;2.50;99.90;;;;;;5051355;28;20187;-84
2022/01/26 07:27:09;;;;;;;75.18;23.83;;;2.50;99.90;;;;;;5050694;28;20056;-84
2022/01/26 07:29:35;;;;;;;70.65;21.48;;;2.40;99.90;;;;;;5047732;28;20056;-85
2022/01/26 07:32:04;;;;;;;63.50;22.08;;;2.50;99.90;;;;;;5013716;28;20722;-84
2022/01/26 07:34:30;;;;;;;70.35;23.42;;;2.50;99.90;;;;;;5033922;28;20045;-83
2022/01/26 07:37:00;;;;;;;79.18;23.90;;;2.50;99.90;;;;;;5049898;28;20124;-85
2022/01/26 07:39:44;;;;;;;76.45;24.60;;;2.50;99.90;;;;;;5036863;28;20490;-83
2022/01/26 07:42:11;;;;;;;78.32;25.20;;;2.50;99.90;;;;;;5053746;28;20045;-84
2022/01/26 07:44:37;;;;;;;75.03;24.02;;;2.50;99.90;;;;;;5047202;28;20049;-84
2022/01/26 07:47:03;;;;;;;64.80;23.42;;;2.50;99.90;;;;;;5048430;28;20056;-83
2022/01/26 07:49:29;;;;;;;76.53;25.50;;;2.40;99.90;;;;;;5050631;28;20056;-83
2022/01/26 07:51:55;;;;;;;74.72;24.55;;;2.50;99.90;;;;;;5027943;28;20550;-83
2022/01/26 07:54:22;;;;;;;85.72;26.45;;;2.50;99.90;;;;;;5022972;28;20049;-83
2022/01/26 07:56:47;;;;;;;77.80;26.45;;;2.50;99.90;;;;;;5014407;28;20183;-84
2022/01/26 07:59:13;;;;;;;70.22;24.80;;;2.50;99.90;;;;;;5043129;28;20136;-84
2022/01/26 08:01:39;;;;;;;85.30;27.48;;;2.60;99.90;;;;;;5049812;28;20136;-83
2022/01/26 08:04:05;;;;;;;83.22;27.55;;;2.60;99.90;;;;;;5033157;28;20439;-84
2022/01/26 08:06:31;;;;;;;79.90;27.77;;;2.60;99.90;;;;;;5045809;28;20048;-83
2022/01/26 08:08:57;;;;;;;84.15;29.60;;;2.60;99.90;;;;;;5049028;28;20410;-84
2022/01/26 08:11:24;;;;;;;86.72;28.00;;;2.70;99.90;;;;;;5049808;28;20094;-83
2022/01/26 08:13:53;;;;;;;91.30;28.60;;;2.70;99.90;;;;;;5033239;28;20049;-84
2022/01/26 08:16:19;;;;;;;93.05;31.95;;;2.70;99.90;;;;;;5049578;28;20044;-84
2022/01/26 08:18:45;;;;;;;87.35;29.15;;;2.70;99.90;;;;;;5048516;28;20041;-82
2022/01/26 08:21:11;;;;;;;96.97;30.95;;;2.70;99.90;;;;;;5009337;28;20041;-83
2022/01/26 08:23:37;;;;;;;91.47;31.45;;;2.70;99.90;;;;;;5013827;28;20045;-83
2022/01/26 08:26:04;;;;;;;95.68;30.23;;;2.70;99.90;;;;;;5023920;28;20124;-83
2022/01/26 08:28:37;;;;;;;90.95;30.85;;;2.70;99.90;;;;;;5033211;28;20076;-83
2022/01/26 08:31:04;;;;;;;96.60;34.00;;;2.80;99.90;;;;;;5050193;28;20482;-83
2022/01/26 08:33:29;;;;;;;99.35;32.15;;;2.60;99.90;;;;;;5014237;28;20049;-83
2022/01/26 08:35:55;;;;;;;101.70;33.72;;;2.80;99.90;;;;;;5048821;28;20494;-84
2022/01/26 08:38:21;;;;;;;102.15;34.42;;;2.80;99.90;;;;;;5063480;28;20076;-84
2022/01/26 08:40:49;;;;;;;100.70;35.10;;;2.80;99.90;;;;;;5049894;28;20060;-84
2022/01/26 08:43:15;;;;;;;104.90;36.20;;;2.80;99.90;;;;;;5045355;28;20140;-84
2022/01/26 08:45:41;;;;;;;106.95;34.70;;;2.80;99.90;;;;;;5015736;28;20398;-84
2022/01/26 08:48:08;;;;;;;110.63;38.13;;;2.80;99.90;;;;;;5030796;28;20045;-83
2022/01/26 08:50:34;;;;;;;119.40;38.78;;;2.90;99.90;;;;;;5049149;28;20041;-84
2022/01/26 08:53:00;;;;;;;107.43;36.75;;;2.90;99.90;;;;;;5037788;28;20053;-83
2022/01/26 08:55:26;;;;;;;112.80;39.05;;;2.90;99.90;;;;;;5031885;28;20045;-84
2022/01/26 08:57:51;;;;;;;123.38;39.92;;;3.00;99.90;;;;;;5016709;28;20053;-84
2022/01/26 09:00:17;;;;;;;122.88;39.83;;;3.10;99.90;;;;;;5047988;28;20095;-84
2022/01/26 09:02:44;;;;;;;103.00;37.45;;;3.00;99.90;;;;;;5015274;28;20501;-84
2022/01/26 09:05:10;;;;;;;120.78;41.30;;;3.00;99.90;;;;;;5048905;28;20583;-83
2022/01/26 09:07:36;;;;;;;113.03;39.78;;;3.00;99.90;;;;;;5028415;28;20095;-84
2022/01/26 09:10:03;;;;;;;112.57;39.28;;;3.00;99.90;;;;;;5046223;28;20402;-85
2022/01/26 09:12:31;;;;;;;122.57;40.78;;;3.00;99.90;;;;;;5013639;28;20494;-84
2022/01/26 09:15:01;;;;;;;120.28;42.22;;;3.10;99.90;;;;;;5037554;28;20045;-84
2022/01/26 09:17:30;;;;;;;122.18;40.63;;;3.10;99.90;;;;;;5038928;28;20474;-84
2022/01/26 09:19:58;;;;;;;116.60;43.13;;;3.10;99.90;;;;;;5031091;28;20140;-84
2022/01/26 09:22:24;;;;;;;128.32;42.15;;;3.10;99.90;;;;;;5047590;28;20053;-84
2022/01/26 09:24:50;;;;;;;135.70;43.55;;;3.10;99.90;;;;;;5002723;28;20041;-85
2022/01/26 09:27:17;;;;;;;122.57;43.22;;;3.10;99.90;;;;;;4996218;28;20060;-84
2022/01/26 09:29:44;;;;;;;122.43;42.80;;;3.20;99.90;;;;;;5049365;28;20118;-85
2022/01/26 09:32:11;;;;;;;119.80;41.28;;;3.20;99.90;;;;;;5014315;28;20119;-84
2022/01/26 09:34:38;;;;;;;127.38;42.20;;;3.30;99.90;;;;;;5045972;28;20064;-84
2022/01/26 09:37:10;;;;;;;118.60;41.45;;;3.30;99.90;;;;;;5045735;28;20115;-84
2022/01/26 09:39:39;;;;;;;127.00;42.78;;;3.30;99.90;;;;;;5041191;28;20049;-84
2022/01/26 09:42:06;;;;;;;124.22;42.08;;;3.30;99.90;;;;;;5048809;28;20059;-84
2022/01/26 09:44:32;;;;;;;117.18;41.33;;;3.40;99.90;;;;;;5031703;28;20124;-85
2022/01/26 09:46:58;;;;;;;125.97;43.85;;;3.40;99.90;;;;;;5033235;28;22258;-83
2022/01/26 09:49:31;;;;;;;114.85;40.22;;;3.50;99.90;;;;;;5049683;28;20144;-85
2022/01/26 09:52:00;;;;;;;126.57;42.65;;;3.50;99.90;;;;;;5057029;28;20056;-84
2022/01/26 09:54:30;;;;;;;119.63;39.88;;;3.50;99.90;;;;;;5068557;28;20040;-84
2022/01/26 09:57:01;;;;;;;119.95;41.35;;;3.60;99.90;;;;;;5027971;28;20077;-83
2022/01/26 09:59:28;;;;;;;119.40;42.30;;;3.70;99.90;;;;;;5049393;28;20059;-84
2022/01/26 10:01:54;;;;;;;120.47;42.05;;;3.70;99.90;;;;;;5064537;28;20087;-84
2022/01/26 10:04:25;;;;;;;118.28;43.25;;;3.70;99.90;;;;;;5056608;28;20084;-85
2022/01/26 10:07:22;;;;;;;119.28;43.58;;;3.70;99.90;;;;;;5035897;28;20494;-84
2022/01/26 10:18:09;;;;;;;113.05;41.20;;;3.80;99.90;;;;;;5036114;28;20139;-84
2022/01/26 10:20:52;;;;;;;115.60;39.97;;;3.80;99.90;;;;;;5036189;28;20049;-84
2022/01/26 10:23:27;;;;;;;121.70;42.80;;;3.80;99.90;;;;;;5034864;28;20111;-84
2022/01/26 10:26:06;;;;;;;113.68;41.90;;;3.90;99.90;;;;;;5051184;28;20049;-85
2022/01/26 10:28:49;;;;;;;118.03;41.33;;;3.90;99.90;;;;;;5043696;28;20084;-81
2022/01/26 10:31:17;;;;;;;108.78;39.83;;;3.90;99.90;;;;;;5056678;28;20506;-81
2022/01/26 10:33:53;;;;;;;118.70;41.03;;;3.90;99.90;;;;;;5040205;28;20047;-83
2022/01/26 10:36:19;;;;;;;113.03;42.83;;;3.90;99.90;;;;;;5045938;28;20044;-84
2022/01/26 10:38:56;;;;;;;114.55;39.22;;;3.90;99.90;;;;;;5015937;28;20103;-85
2022/01/26 10:41:22;;;;;;;116.32;38.67;;;4.00;99.90;;;;;;5067118;28;20103;-84
2022/01/26 10:43:53;;;;;;;114.28;40.28;;;4.00;99.90;;;;;;5016166;28;20045;-84
2022/01/26 10:46:28;;;;;;;103.35;39.22;;;4.00;99.90;;;;;;5071929;28;20049;-85
2022/01/26 10:51:53;;;;;;;112.55;40.88;;;4.10;99.90;;;;;;5074214;28;20045;-84
2022/01/26 10:54:39;;;;;;;109.68;37.63;;;4.10;99.90;;;;;;5042015;28;20495;-84
2022/01/26 10:57:08;;;;;;;99.13;37.78;;;4.10;99.90;;;;;;5058476;28;20122;-85
2022/01/26 10:59:36;;;;;;;105.28;36.88;;;4.10;99.90;;;;;;5059244;28;20041;-85
2022/01/26 11:02:06;;;;;;;104.45;38.95;;;4.10;99.90;;;;;;5056141;28;20064;-85
2022/01/26 11:04:34;;;;;;;103.30;38.17;;;4.20;99.90;;;;;;5029296;28;20053;-85
2022/01/26 11:07:02;;;;;;;103.22;37.97;;;4.10;99.90;;;;;;5016452;28;20044;-86
2022/01/26 11:09:31;;;;;;;94.72;34.88;;;4.20;99.90;;;;;;5042216;28;20052;-85
2022/01/26 11:12:05;;;;;;;102.15;37.85;;;4.20;99.90;;;;;;5059461;28;20562;-84
2022/01/26 11:15:05;;;;;;;102.55;39.03;;;4.10;99.90;;;;;;5047616;28;20036;-85
2022/01/26 11:17:35;;;;;;;102.10;37.97;;;4.10;99.90;;;;;;5036861;28;20053;-86
2022/01/26 11:20:20;;;;;;;107.78;38.70;;;4.20;99.90;;;;;;5040421;28;20162;-85
2022/01/26 11:22:55;;;;;;;98.10;37.33;;;4.20;99.90;;;;;;5043165;28;20057;-85
2022/01/26 11:25:22;;;;;;;100.18;35.92;;;4.20;99.90;;;;;;5041177;28;20072;-84
2022/01/26 11:27:48;;;;;;;102.47;35.90;;;4.20;99.90;;;;;;5034256;28;20060;-84
2022/01/26 11:30:19;;;;;;;93.32;32.17;;;4.30;99.90;;;;;;5056431;28;20127;-85
2022/01/26 11:32:51;;;;;;;92.32;34.92;;;4.30;99.90;;;;;;5048356;28;20048;-85
2022/01/26 11:35:17;;;;;;;91.53;33.22;;;4.30;99.90;;;;;;5054357;28;20068;-86
2022/01/26 11:37:48;;;;;;;103.07;36.13;;;4.30;99.90;;;;;;5035790;28;20052;-85
2022/01/26 11:46:11;;;;;;;84.88;30.17;;;4.40;99.90;;;;;;5035727;28;20060;-86
2022/01/26 11:48:38;;;;;;;92.35;33.28;;;4.40;99.90;;;;;;5020237;28;20127;-84
2022/01/26 11:51:05;;;;;;;95.03;35.08;;;4.50;99.90;;;;;;5063713;28;20049;-83
2022/01/26 11:53:31;;;;;;;74.72;27.63;;;4.50;99.90;;;;;;5041750;28;20131;-84
2022/01/26 11:56:08;;;;;;;85.55;31.05;;;4.50;99.90;;;;;;5051660;28;20135;-84
2022/01/26 11:58:44;;;;;;;87.40;30.08;;;4.50;99.90;;;;;;5041147;28;20041;-84
2022/01/26 12:01:23;;;;;;;84.55;31.77;;;4.50;99.90;;;;;;5041149;28;20108;-84
2022/01/26 12:04:12;;;;;;;91.30;31.98;;;4.50;99.90;;;;;;5035699;28;20546;-84
2022/01/26 12:06:48;;;;;;;94.20;33.13;;;4.50;99.90;;;;;;5039466;28;20053;-83
2022/01/26 12:09:14;;;;;;;82.25;30.33;;;4.30;99.90;;;;;;5031825;28;20049;-84
2022/01/26 12:11:40;;;;;;;88.95;31.85;;;4.30;99.90;;;;;;5030006;28;20055;-84
2022/01/26 12:14:10;;;;;;;76.90;28.42;;;4.30;99.90;;;;;;5053766;28;20041;-84
2022/01/26 12:16:45;;;;;;;91.45;33.50;;;4.20;99.90;;;;;;5035173;28;20167;-83
2022/01/26 12:33:26;;;;;;;84.07;29.33;;;4.20;99.90;;;;;;5024967;28;20045;-84
2022/01/26 12:38:42;;;;;;;93.90;31.33;;;4.20;99.90;;;;;;5014368;28;20107;-84
2022/01/26 12:44:09;;;;;;;;;;;4.40;99.90;;;;;;5035737;28;20139;-84
2022/01/26 12:46:37;;;;;;;85.95;29.23;;;4.40;99.90;;;;;;5048913;28;20019;-84
2022/01/26 12:49:14;;;;;;;87.38;31.85;;;4.40;99.90;;;;;;5011879;28;20052;-83
2022/01/26 12:51:48;;;;;;;91.45;32.78;;;4.40;99.90;;;;;;5044635;28;20040;-84
2022/01/26 12:54:15;;;;;;;88.68;32.25;;;4.40;99.90;;;;;;5049876;28;20045;-84
2022/01/26 12:56:41;;;;;;;98.68;33.35;;;4.30;99.90;;;;;;5011875;28;20154;-83
2022/01/26 12:59:09;;;;;;;102.72;34.47;;;4.30;99.90;;;;;;5033041;28;20533;-84
2022/01/26 13:01:36;;;;;;;103.68;35.28;;;4.30;99.90;;;;;;5018929;28;20065;-85
2022/01/26 13:04:05;;;;;;;88.63;31.17;;;4.20;99.90;;;;;;5039138;28;20045;-84
2022/01/26 13:06:37;;;;;;;108.75;38.17;;;4.20;99.90;;;;;;5044828;28;20037;-84
2022/01/26 13:09:15;;;;;;;107.28;37.05;;;4.10;99.90;;;;;;5048176;28;20045;-84
2022/01/26 13:11:44;;;;;;;117.03;38.50;;;4.10;99.90;;;;;;5030101;28;20037;-84
2022/01/26 13:14:24;;;;;;;111.78;36.60;;;4.10;99.90;;;;;;5013448;28;20128;-84
2022/01/26 13:17:55;;;;;;;95.57;34.17;;;4.10;99.90;;;;;;5047988;28;20041;-84
2022/01/26 13:28:29;;;;;;;91.50;33.13;;;4.10;99.90;;;;;;5049404;28;20075;-84
2022/01/26 13:34:27;;;;;;;89.60;30.70;;;4.20;99.90;;;;;;5048538;28;20057;-83
2022/01/26 13:36:59;;;;;;;93.70;31.52;;;4.30;99.90;;;;;;5061787;28;20582;-84
2022/01/26 13:39:38;;;;;;;92.82;30.65;;;4.40;99.90;;;;;;5017888;28;20184;-84
2022/01/26 13:48:14;;;;;;;82.43;26.75;;;4.40;99.90;;;;;;5029134;28;20124;-84
2022/01/26 13:50:29;;;;;;;79.90;28.75;;;4.50;99.90;;;;;;5050833;28;20056;-85
2022/01/26 13:53:04;;;;;;;86.00;30.45;;;4.50;99.90;;;;;;5055680;28;20107;-84
2022/01/26 13:55:59;;;;;;;81.40;30.20;;;4.50;99.90;;;;;;5054032;28;20056;-84
2022/01/26 14:01:33;;;;;;;79.07;28.30;;;4.60;99.90;;;;;;5041956;28;20155;-83
2022/01/26 14:03:39;;;;;;;74.03;26.67;;;4.60;99.90;;;;;;5049143;28;20057;-83
2022/01/26 14:06:05;;;;;;;78.07;27.70;;;4.50;99.90;;;;;;5071725;28;20402;-83
2022/01/26 14:08:31;;;;;;;77.55;25.95;;;4.60;99.90;;;;;;5068571;28;20061;-86
2022/01/26 14:10:57;;;;;;;66.05;25.20;;;4.60;99.90;;;;;;5055105;28;20049;-84
2022/01/26 14:13:25;;;;;;;61.83;22.70;;;4.60;99.90;;;;;;5013674;28;20041;-83
2022/01/26 14:15:54;;;;;;;66.75;25.98;;;4.60;99.90;;;;;;5054041;28;20249;-85
2022/01/26 14:21:21;;;;;;;72.32;25.85;;;4.60;99.90;;;;;;5039953;28;20635;-83
2022/01/26 14:26:18;;;;;;;71.70;26.40;;;4.70;99.90;;;;;;5019130;28;20092;-83
2022/01/26 14:28:44;;;;;;;82.85;27.42;;;4.70;99.90;;;;;;5077520;28;20056;-84
2022/01/26 14:31:26;;;;;;;73.78;27.33;;;4.80;99.90;;;;;;5050782;28;20033;-84
2022/01/26 14:39:53;;;;;;;72.25;25.33;;;4.80;99.90;;;;;;5049899;28;20489;-83
2022/01/26 15:33:44;;;;;;;60.58;22.35;;;5.10;99.90;;;;;;5037214;28;20061;-84
2022/01/26 15:42:09;;;;;;;63.80;22.75;;;5.00;99.90;;;;;;5037322;28;20521;-87
2022/01/26 15:48:41;;;;;;;62.55;25.20;;;5.10;99.90;;;;;;5066934;28;20048;-84
2022/01/26 15:58:18;;;;;;;61.50;25.25;;;5.10;99.90;;;;;;5036531;28;20045;-84
2022/01/26 16:06:19;;;;;;;71.32;25.63;;;5.10;99.90;;;;;;5036126;28;20482;-85
2022/01/26 16:19:57;;;;;;;62.35;22.88;;;5.10;99.90;;;;;;5053137;28;20049;-84
2022/01/26 16:38:48;;;;;;;72.80;28.00;;;5.00;99.90;;;;;;5040256;28;20052;-84
2022/01/26 17:11:48;;;;;;;74.38;30.55;;;5.00;99.90;;;;;;5046989;28;20561;-86
2022/01/26 18:04:06;;;;;;;71.22;28.08;;;5.10;99.90;;;;;;5025226;28;20060;-86
2022/01/26 18:16:43;;;;;;;65.68;26.45;;;5.20;99.90;;;;;;5031697;28;20056;-87
2022/01/26 18:33:01;;;;;;;57.58;23.77;;;5.40;99.90;;;;;;5046033;28;20049;-89
2022/01/26 18:46:43;;;;;;;56.15;24.05;;;5.50;99.90;;;;;;5025033;28;20056;-88
2022/01/26 18:51:44;;;;;;;56.13;22.58;;;5.50;99.90;;;;;;5047976;28;20267;-88
2022/01/26 18:54:11;;;;;;;59.90;24.35;;;5.60;99.90;;;;;;5035560;28;20546;-87
2022/01/26 18:56:41;;;;;;;56.17;25.23;;;5.60;99.90;;;;;;5043611;28;20561;-88
2022/01/26 18:59:07;;;;;;;55.15;22.95;;;5.60;99.90;;;;;;5075608;28;20045;-86
2022/01/26 19:01:34;;;;;;;56.33;24.38;;;5.60;99.90;;;;;;5049965;28;20114;-86
2022/01/26 19:04:01;;;;;;;57.05;22.58;;;5.60;99.90;;;;;;5043096;28;20104;-88
2022/01/26 19:06:27;;;;;;;60.67;26.40;;;5.70;99.90;;;;;;5043999;28;20186;-87
2022/01/26 19:08:53;;;;;;;57.72;23.10;;;5.60;99.90;;;;;;5035759;28;20053;-88
2022/01/26 19:11:21;;;;;;;49.47;22.75;;;5.60;99.90;;;;;;5034758;28;20195;-88